createdAt,value
2018-08-08T00:00:15.591Z,50.17
2018-08-08T00:01:15.664Z,50.26
2018-08-08T00:02:15.549Z,49.99
2018-08-08T00:03:15.615Z,50.08
2018-08-08T00:04:15.544Z,50.43
2018-08-08T00:05:15.512Z,50.45
2018-08-08T00:06:15.636Z,49.91
2018-08-08T00:07:15.699Z,50.31
2018-08-08T00:08:15.725Z,50.16
2018-08-08T00:09:15.554Z,50.7
2018-08-08T00:10:15.557Z,50.54
2018-08-08T00:11:15.550Z,50.63
2018-08-08T00:12:15.607Z,50.76
2018-08-08T00:13:15.623Z,50.75
2018-08-08T00:14:15.548Z,50.61
2018-08-08T00:15:15.554Z,50.96
2018-08-08T00:16:15.745Z,50.97
2018-08-08T00:17:15.537Z,50.69
2018-08-08T00:18:15.656Z,50.68
2018-08-08T00:19:15.630Z,51.19
2018-08-08T00:20:15.527Z,50.91
2018-08-08T00:21:15.534Z,51.24
2018-08-08T00:22:15.601Z,50.96
2018-08-08T00:23:15.542Z,51.17
2018-08-08T00:24:15.742Z,51.22
2018-08-08T00:25:15.602Z,51.03
2018-08-08T00:26:15.612Z,51.01
2018-08-08T00:27:15.537Z,51.16
2018-08-08T00:28:15.554Z,50.77
2018-08-08T00:29:15.537Z,50.75
2018-08-08T00:30:15.555Z,51.33
2018-08-08T00:31:15.575Z,51.51
2018-08-08T00:32:15.566Z,51.53
2018-08-08T00:33:15.566Z,51.44
2018-08-08T00:34:15.565Z,51.77
2018-08-08T00:35:15.567Z,51.85
2018-08-08T00:36:15.551Z,51.75
2018-08-08T00:37:15.575Z,51.74
2018-08-08T00:38:15.558Z,51.83
2018-08-08T00:39:15.598Z,51.71
2018-08-08T00:40:15.609Z,51.66
2018-08-08T00:41:15.963Z,51.81
2018-08-08T00:42:15.568Z,52.15
2018-08-08T00:43:15.575Z,51.34
2018-08-08T00:44:15.568Z,52.01
2018-08-08T00:45:15.581Z,51.9
2018-08-08T00:46:15.574Z,51.83
2018-08-08T00:47:15.605Z,51.99
2018-08-08T00:48:15.572Z,52.03
2018-08-08T00:49:15.592Z,52.26
2018-08-08T00:50:15.773Z,52.01
2018-08-08T00:51:15.883Z,52.15
2018-08-08T00:52:15.582Z,51.64
2018-08-08T00:53:15.602Z,52.14
2018-08-08T00:54:15.690Z,51.61
2018-08-08T00:55:15.727Z,52.08
2018-08-08T00:56:15.590Z,51.52
2018-08-08T00:57:15.563Z,52.15
2018-08-08T00:58:15.624Z,52.43
2018-08-08T00:59:16.035Z,51.9
2018-08-08T01:00:15.596Z,52.05
2018-08-08T01:01:15.616Z,52.1
2018-08-08T01:02:15.607Z,51.61
2018-08-08T01:03:15.565Z,51.57
2018-08-08T01:04:15.648Z,52.2
2018-08-08T01:05:15.639Z,51.98
2018-08-08T01:06:15.604Z,51.64
2018-08-08T01:07:15.604Z,51.95
2018-08-08T01:08:15.929Z,51.8
2018-08-08T01:09:15.596Z,52.04
2018-08-08T01:10:15.829Z,52.46
2018-08-08T01:11:15.633Z,52.48
2018-08-08T01:12:15.605Z,52.55
2018-08-08T01:13:15.682Z,52.43
2018-08-08T01:14:15.640Z,52.28
2018-08-08T01:15:15.610Z,52.48
2018-08-08T01:16:15.600Z,52.28
2018-08-08T01:17:15.635Z,52.55
2018-08-08T01:18:15.674Z,52.44
2018-08-08T01:19:15.611Z,52.37
2018-08-08T01:20:15.662Z,52.23
2018-08-08T01:21:15.622Z,51.9
2018-08-08T01:22:15.630Z,52.37
2018-08-08T01:23:15.596Z,52.4
2018-08-08T01:24:15.610Z,52.45
2018-08-08T01:25:15.634Z,52.4
2018-08-08T01:26:15.625Z,52.52
2018-08-08T01:27:15.616Z,52.58
2018-08-08T01:28:15.687Z,52.9
2018-08-08T01:29:15.618Z,52.86
2018-08-08T01:30:15.628Z,52.84
2018-08-08T01:31:15.690Z,53.12
2018-08-08T01:32:15.707Z,53.06
2018-08-08T01:33:15.778Z,53.09
2018-08-08T01:34:15.674Z,53.08
2018-08-08T01:35:15.729Z,53.04
2018-08-08T01:36:15.669Z,53.06
2018-08-08T01:37:15.650Z,53.19
2018-08-08T01:38:15.688Z,53.01
2018-08-08T01:39:15.691Z,52.8
2018-08-08T01:40:15.651Z,53.25
2018-08-08T01:41:15.645Z,53.25
2018-08-08T01:42:15.645Z,53.5
2018-08-08T01:43:15.760Z,53.36
2018-08-08T01:44:15.645Z,53.23
2018-08-08T01:45:15.673Z,53.35
2018-08-08T01:46:15.642Z,53.47
2018-08-08T01:47:15.667Z,53.56
2018-08-08T01:48:15.665Z,53.41
2018-08-08T01:49:15.655Z,53.5
2018-08-08T01:50:15.648Z,53.45
2018-08-08T01:51:15.664Z,53.48
2018-08-08T01:52:15.663Z,53.36
2018-08-08T01:53:15.730Z,53.28
2018-08-08T01:54:15.676Z,53
2018-08-08T01:55:15.657Z,53.34
2018-08-08T01:56:15.652Z,53.26
2018-08-08T01:57:15.670Z,53.34
2018-08-08T01:58:15.642Z,52.97
2018-08-08T01:59:15.656Z,52.96
2018-08-08T02:00:15.652Z,52.83
2018-08-08T02:01:15.657Z,53.06
2018-08-08T02:02:15.678Z,52.79
2018-08-08T02:03:15.659Z,52.82
2018-08-08T02:04:15.689Z,52.97
2018-08-08T02:05:15.664Z,52.8
2018-08-08T02:06:15.856Z,52.69
2018-08-08T02:07:15.702Z,52.63
2018-08-08T02:08:15.719Z,52.58
2018-08-08T02:09:15.709Z,52.73
2018-08-08T02:10:15.701Z,52.67
2018-08-08T02:11:15.686Z,52.76
2018-08-08T02:12:15.734Z,52.62
2018-08-08T02:13:15.816Z,52.7
2018-08-08T02:14:15.792Z,53.06
2018-08-08T02:15:15.753Z,53.26
2018-08-08T02:16:15.949Z,53.21
2018-08-08T02:17:15.690Z,53.02
2018-08-08T02:18:15.809Z,53.08
2018-08-08T02:19:15.725Z,53.04
2018-08-08T02:20:15.750Z,52.88
2018-08-08T02:21:15.703Z,53.33
2018-08-08T02:22:15.700Z,53.34
2018-08-08T02:23:15.680Z,53.02
2018-08-08T02:24:15.699Z,53.39
2018-08-08T02:25:15.694Z,53.34
2018-08-08T02:26:15.771Z,53.48
2018-08-08T02:27:15.726Z,53.25
2018-08-08T02:28:15.765Z,53.26
2018-08-08T02:29:15.837Z,52.99
2018-08-08T02:30:15.713Z,52.94
2018-08-08T02:31:15.765Z,52.91
2018-08-08T02:32:15.724Z,53.24
2018-08-08T02:33:15.748Z,53.36
2018-08-08T02:34:15.718Z,53.11
2018-08-08T02:35:15.712Z,53.4
2018-08-08T02:36:15.708Z,53.64
2018-08-08T02:37:16.092Z,53.8
2018-08-08T02:38:15.761Z,53.81
2018-08-08T02:39:15.931Z,53.73
2018-08-08T02:40:15.757Z,53.49
2018-08-08T02:41:15.728Z,53.89
2018-08-08T02:42:15.804Z,53.68
2018-08-08T02:43:15.812Z,53.95
2018-08-08T02:44:15.736Z,54.07
2018-08-08T02:45:15.719Z,53.6
2018-08-08T02:46:15.732Z,53.71
2018-08-08T02:47:15.758Z,53.63
2018-08-08T02:48:16.026Z,53.66
2018-08-08T02:49:15.737Z,54.53
2018-08-08T02:50:15.809Z,54.5
2018-08-08T02:51:15.741Z,54.61
2018-08-08T02:52:15.755Z,54.28
2018-08-08T02:53:15.792Z,54.42
2018-08-08T02:54:15.769Z,54.24
2018-08-08T02:55:15.751Z,54.11
2018-08-08T02:56:15.815Z,54.27
2018-08-08T02:57:15.764Z,54.13
2018-08-08T02:58:15.747Z,54.56
2018-08-08T02:59:15.765Z,54.81
2018-08-08T03:00:15.766Z,54.8
2018-08-08T03:01:15.789Z,54.43
2018-08-08T03:02:15.977Z,54.49
2018-08-08T03:03:16.006Z,54.46
2018-08-08T03:04:15.762Z,54.44
2018-08-08T03:05:15.774Z,54.98
2018-08-08T03:06:15.768Z,54.25
2018-08-08T03:07:15.740Z,54.36
2018-08-08T03:08:16.217Z,54.3
2018-08-08T03:09:15.785Z,54.06
2018-08-08T03:10:15.776Z,54.41
2018-08-08T03:11:15.783Z,54.38
2018-08-08T03:12:15.756Z,54.7
2018-08-08T03:13:15.753Z,54.21
2018-08-08T03:14:15.743Z,54.22
2018-08-08T03:15:19.805Z,54.35
2018-08-08T03:16:15.762Z,54.47
2018-08-08T03:17:15.778Z,54.43
2018-08-08T03:18:15.787Z,54.44
2018-08-08T03:19:15.759Z,54.6
2018-08-08T03:20:15.773Z,55
2018-08-08T03:21:15.780Z,55.11
2018-08-08T03:22:15.780Z,54.83
2018-08-08T03:23:15.775Z,54.84
2018-08-08T03:24:15.769Z,54.74
2018-08-08T03:25:15.805Z,55.23
2018-08-08T03:26:16.271Z,55.11
2018-08-08T03:27:15.812Z,54.93
2018-08-08T03:28:15.819Z,54.95
2018-08-08T03:29:15.764Z,55.22
2018-08-08T03:30:15.812Z,55.02
2018-08-08T03:31:15.979Z,54.67
2018-08-08T03:32:15.933Z,54.98
2018-08-08T03:33:15.781Z,55.27
2018-08-08T03:34:15.883Z,55.3
2018-08-08T03:35:15.845Z,55.39
2018-08-08T03:36:15.880Z,55.36
2018-08-08T03:37:15.800Z,55.01
2018-08-08T03:38:15.799Z,55.25
2018-08-08T03:39:15.894Z,55.2
2018-08-08T03:40:15.789Z,55.01
2018-08-08T03:41:15.992Z,55.32
2018-08-08T03:42:15.941Z,55.17
2018-08-08T03:43:15.792Z,55.49
2018-08-08T03:44:15.802Z,55.46
2018-08-08T03:45:15.910Z,55.42
2018-08-08T03:46:15.821Z,55.67
2018-08-08T03:47:15.796Z,56.04
2018-08-08T03:48:15.824Z,55.98
2018-08-08T03:49:15.916Z,56.05
2018-08-08T03:50:15.798Z,56.29
2018-08-08T03:51:16.000Z,56.13
2018-08-08T03:52:15.953Z,56.69
2018-08-08T03:53:16.364Z,56.5
2018-08-08T03:54:15.950Z,56.2
2018-08-08T03:55:15.812Z,56.31
2018-08-08T03:56:15.980Z,57.19
2018-08-08T03:57:15.991Z,56.54
2018-08-08T03:58:15.993Z,56.85
2018-08-08T03:59:15.980Z,57.35
2018-08-08T04:00:16.055Z,56.85
2018-08-08T04:01:15.997Z,57.23
2018-08-08T04:02:15.910Z,57.39
2018-08-08T04:03:15.975Z,57.31
2018-08-08T04:04:15.812Z,57.06
2018-08-08T04:05:15.844Z,57.71
2018-08-08T04:06:15.920Z,57.43
2018-08-08T04:07:15.859Z,57.69
2018-08-08T04:08:16.018Z,57.7
2018-08-08T04:09:16.148Z,57.25
2018-08-08T04:10:15.816Z,57.87
2018-08-08T04:11:15.830Z,58.44
2018-08-08T04:12:15.996Z,58.44
2018-08-08T04:13:15.949Z,57.43
2018-08-08T04:14:15.830Z,58.13
2018-08-08T04:15:15.951Z,58.51
2018-08-08T04:16:16.011Z,59.01
2018-08-08T04:17:16.411Z,58.93
2018-08-08T04:18:15.852Z,58.7
2018-08-08T04:19:16.035Z,59.1
2018-08-08T04:20:16.004Z,58.8
2018-08-08T04:21:15.875Z,59.11
2018-08-08T04:22:15.979Z,59.41
2018-08-08T04:23:15.921Z,59.26
2018-08-08T04:24:16.109Z,59.62
2018-08-08T04:25:15.921Z,59.68
2018-08-08T04:26:15.828Z,59.58
2018-08-08T04:27:15.832Z,59.35
2018-08-08T04:28:15.858Z,58.98
2018-08-08T04:29:15.850Z,59.01
2018-08-08T04:30:15.920Z,58.71
2018-08-08T04:31:15.855Z,58.68
2018-08-08T04:32:15.843Z,58.61
2018-08-08T04:33:15.970Z,58.5
2018-08-08T04:34:15.844Z,58.43
2018-08-08T04:35:15.905Z,58.43
2018-08-08T04:36:15.870Z,58.12
2018-08-08T04:37:15.874Z,58.05
2018-08-08T04:38:15.855Z,57.95
2018-08-08T04:39:15.848Z,57.95
2018-08-08T04:40:15.881Z,57.63
2018-08-08T04:41:15.848Z,57.55
2018-08-08T04:42:15.860Z,57.34
2018-08-08T04:43:15.860Z,57.07
2018-08-08T04:44:15.866Z,56.92
2018-08-08T04:45:16.052Z,56.53
2018-08-08T04:46:16.075Z,56.53
2018-08-08T04:47:15.880Z,56.28
2018-08-08T04:48:15.979Z,55.87
2018-08-08T04:49:15.973Z,55.66
2018-08-08T04:50:15.915Z,55.24
2018-08-08T04:51:15.953Z,54.49
2018-08-08T04:52:15.883Z,54.12
2018-08-08T04:53:16.086Z,53.93
2018-08-08T04:54:16.034Z,53.84
2018-08-08T04:55:15.981Z,53.73
2018-08-08T04:56:15.946Z,53.56
2018-08-08T04:57:15.996Z,53.64
2018-08-08T04:58:15.925Z,53.59
2018-08-08T04:59:16.012Z,53.61
2018-08-08T05:00:16.363Z,53.64
2018-08-08T05:01:16.047Z,53.66
2018-08-08T05:02:15.904Z,53.65
2018-08-08T05:03:15.979Z,53.63
2018-08-08T05:04:16.017Z,53.73
2018-08-08T05:05:15.995Z,53.71
2018-08-08T05:06:15.907Z,53.65
2018-08-08T05:07:15.906Z,53.8
2018-08-08T05:08:15.903Z,53.78
2018-08-08T05:09:15.986Z,53.77
2018-08-08T05:10:15.987Z,53.83
2018-08-08T05:11:15.928Z,53.86
2018-08-08T05:12:16.033Z,53.76
2018-08-08T05:13:16.137Z,53.59
2018-08-08T05:14:15.964Z,53.73
2018-08-08T05:15:16.019Z,53.77
2018-08-08T05:16:15.968Z,53.64
2018-08-08T05:17:15.968Z,53.74
2018-08-08T05:18:16.066Z,53.81
2018-08-08T05:19:16.021Z,53.76
2018-08-08T05:20:17.205Z,53.86
2018-08-08T05:21:16.163Z,53.79
2018-08-08T05:22:15.966Z,53.77
2018-08-08T05:23:15.988Z,53.65
2018-08-08T05:24:16.320Z,53.82
2018-08-08T05:25:15.927Z,54
2018-08-08T05:26:16.017Z,53.74
2018-08-08T05:27:15.981Z,53.93
2018-08-08T05:28:16.005Z,53.9
2018-08-08T05:29:15.967Z,53.86
2018-08-08T05:30:15.945Z,53.85
2018-08-08T05:31:16.004Z,53.88
2018-08-08T05:32:16.059Z,54
2018-08-08T05:33:15.933Z,53.98
2018-08-08T05:34:16.112Z,54.02
2018-08-08T05:35:16.204Z,53.89
2018-08-08T05:36:16.263Z,54.17
2018-08-08T05:37:16.024Z,54.12
2018-08-08T05:38:16.069Z,54.1
2018-08-08T05:39:16.105Z,54.27
2018-08-08T05:40:16.016Z,54.24
2018-08-08T05:41:15.951Z,54.39
2018-08-08T05:42:15.940Z,54.18
2018-08-08T05:43:15.957Z,54.37
2018-08-08T05:44:15.953Z,54.49
2018-08-08T05:45:15.946Z,54.8
2018-08-08T05:46:15.973Z,54.63
2018-08-08T05:47:15.966Z,54.78
2018-08-08T05:48:15.973Z,54.96
2018-08-08T05:49:16.129Z,55.03
2018-08-08T05:50:16.002Z,54.76
2018-08-08T05:51:15.961Z,54.92
2018-08-08T05:52:15.954Z,55.06
2018-08-08T05:53:15.971Z,55.14
2018-08-08T05:54:15.952Z,55.27
2018-08-08T05:55:15.976Z,55.13
2018-08-08T05:56:15.968Z,55.09
2018-08-08T05:57:16.005Z,55.92
2018-08-08T05:58:15.953Z,55.39
2018-08-08T05:59:15.964Z,55.37
2018-08-08T06:00:16.009Z,55.06
2018-08-08T06:01:16.009Z,55.81
2018-08-08T06:02:16.023Z,55.51
2018-08-08T06:03:15.992Z,55.85
2018-08-08T06:04:15.961Z,56
2018-08-08T06:05:16.003Z,55.86
2018-08-08T06:06:22.981Z,55.75
2018-08-08T06:07:26.802Z,55.83
2018-08-08T06:08:31.815Z,55.97
2018-08-08T06:09:40.721Z,56.08
2018-08-08T06:10:16.053Z,56.08
2018-08-08T06:11:16.073Z,55.98
2018-08-08T06:12:16.006Z,55.91
2018-08-08T06:13:16.012Z,56.07
2018-08-08T06:14:16.146Z,55.8
2018-08-08T06:15:15.985Z,55.84
2018-08-08T06:16:16.001Z,56.02
2018-08-08T06:17:15.980Z,56.14
2018-08-08T06:18:16.018Z,55.83
2018-08-08T06:19:16.021Z,55.94
2018-08-08T06:20:16.062Z,55.68
2018-08-08T06:21:15.994Z,55.94
2018-08-08T06:22:16.171Z,56.11
2018-08-08T06:23:16.004Z,55.8
2018-08-08T06:24:16.008Z,55.83
2018-08-08T06:25:16.112Z,56.11
2018-08-08T06:26:16.036Z,55.82
2018-08-08T06:27:16.509Z,55.68
2018-08-08T06:28:16.314Z,55.62
2018-08-08T06:29:16.002Z,55.56
2018-08-08T06:30:15.996Z,55.92
2018-08-08T06:31:16.072Z,55.91
2018-08-08T06:32:15.996Z,55.87
2018-08-08T06:33:16.021Z,55.69
2018-08-08T06:34:15.991Z,55.85
2018-08-08T06:35:16.004Z,56.1
2018-08-08T06:36:16.009Z,55.7
2018-08-08T06:37:16.009Z,55.88
2018-08-08T06:38:16.015Z,55.9
2018-08-08T06:39:16.147Z,55.86
2018-08-08T06:40:16.124Z,56.01
2018-08-08T06:41:16.522Z,55.79
2018-08-08T06:42:16.040Z,55.83
2018-08-08T06:43:16.062Z,55.75
2018-08-08T06:44:16.135Z,55.86
2018-08-08T06:45:16.026Z,55.98
2018-08-08T06:46:16.039Z,55.88
2018-08-08T06:47:16.016Z,56.02
2018-08-08T06:48:16.107Z,56.07
2018-08-08T06:49:16.084Z,55.82
2018-08-08T06:50:16.230Z,55.97
2018-08-08T06:51:16.175Z,56
2018-08-08T06:52:16.048Z,55.88
2018-08-08T06:53:16.315Z,55.66
2018-08-08T06:54:16.219Z,55.42
2018-08-08T06:55:16.352Z,55.24
2018-08-08T06:56:16.239Z,55.26
2018-08-08T06:57:16.037Z,55.21
2018-08-08T06:58:16.047Z,55.08
2018-08-08T06:59:16.057Z,55.05
2018-08-08T07:00:16.047Z,55.19
2018-08-08T07:01:16.090Z,54.85
2018-08-08T07:02:16.081Z,55.18
2018-08-08T07:03:16.069Z,55.13
2018-08-08T07:04:16.098Z,55.07
2018-08-08T07:05:16.113Z,54.99
2018-08-08T07:06:16.103Z,55.04
2018-08-08T07:07:16.103Z,55.06
2018-08-08T07:08:16.045Z,55.02
2018-08-08T07:09:16.053Z,55.27
2018-08-08T07:10:16.561Z,54.98
2018-08-08T07:11:16.088Z,54.69
2018-08-08T07:12:16.086Z,54.38
2018-08-08T07:13:16.080Z,54.42
2018-08-08T07:14:16.222Z,54.18
2018-08-08T07:15:16.060Z,54.02
2018-08-08T07:16:16.072Z,53.85
2018-08-08T07:17:16.095Z,53.59
2018-08-08T07:18:16.069Z,53.51
2018-08-08T07:19:16.091Z,53.45
2018-08-08T07:20:16.126Z,53.08
2018-08-08T07:21:16.109Z,52.85
2018-08-08T07:22:16.137Z,52.73
2018-08-08T07:23:16.144Z,52.81
2018-08-08T07:24:16.140Z,52.7
2018-08-08T07:25:16.611Z,52.59
2018-08-08T07:26:16.108Z,52.36
2018-08-08T07:27:16.115Z,52.07
2018-08-08T07:28:16.268Z,52
2018-08-08T07:29:16.146Z,52.6
2018-08-08T07:30:16.304Z,52.59
2018-08-08T07:31:16.098Z,51.61
2018-08-08T07:32:16.581Z,51.62
2018-08-08T07:33:16.183Z,51.41
2018-08-08T07:34:16.120Z,51.79
2018-08-08T07:35:16.110Z,51.05
2018-08-08T07:36:16.167Z,51.01
2018-08-08T07:37:16.349Z,51.1
2018-08-08T07:38:16.153Z,51.26
2018-08-08T07:39:16.160Z,50.23
2018-08-08T07:40:16.245Z,49.84
2018-08-08T07:41:16.185Z,49.95
2018-08-08T07:42:16.145Z,49.98
2018-08-08T07:43:16.171Z,50.37
2018-08-08T07:44:16.145Z,50.56
2018-08-08T07:45:16.145Z,48.45
2018-08-08T07:46:16.305Z,48.9
2018-08-08T07:47:16.240Z,47.45
2018-08-08T07:48:16.195Z,48.15
2018-08-08T07:49:16.365Z,48.11
2018-08-08T07:50:16.157Z,48.42
2018-08-08T07:51:16.155Z,48.43
2018-08-08T07:52:16.199Z,48.57
2018-08-08T07:53:16.305Z,48.91
2018-08-08T07:54:16.158Z,48.92
2018-08-08T07:55:16.155Z,48.81
2018-08-08T07:56:16.124Z,49.09
2018-08-08T07:57:16.155Z,48.81
2018-08-08T07:58:17.613Z,49.06
2018-08-08T07:59:16.286Z,49
2018-08-08T08:00:16.142Z,48.7
2018-08-08T08:01:16.141Z,49.19
2018-08-08T08:02:16.214Z,49.39
2018-08-08T08:03:16.249Z,49.31
2018-08-08T08:04:16.226Z,49.8
2018-08-08T08:05:16.150Z,49.75
2018-08-08T08:06:16.169Z,49.8
2018-08-08T08:07:16.174Z,48.89
2018-08-08T08:08:16.459Z,48.57
2018-08-08T08:09:16.158Z,48.52
2018-08-08T08:10:16.222Z,48.34
2018-08-08T08:11:16.215Z,48.12
2018-08-08T08:12:16.188Z,48.12
2018-08-08T08:13:16.501Z,48.2
2018-08-08T08:14:16.262Z,48.56
2018-08-08T08:15:16.200Z,48.9
2018-08-08T08:16:16.133Z,49.01
2018-08-08T08:17:16.155Z,48.91
2018-08-08T08:18:16.221Z,49.02
2018-08-08T08:19:16.172Z,48.55
2018-08-08T08:20:16.157Z,48.69
2018-08-08T08:21:16.209Z,48.98
2018-08-08T08:22:16.206Z,48.83
2018-08-08T08:23:16.494Z,48.74
2018-08-08T08:24:16.164Z,48.53
2018-08-08T08:25:16.179Z,48.69
2018-08-08T08:26:16.174Z,49.18
2018-08-08T08:27:16.168Z,48.45
2018-08-08T08:28:16.142Z,48.43
2018-08-08T08:29:16.204Z,48.57
2018-08-08T08:30:16.193Z,48.31
2018-08-08T08:31:16.175Z,48.19
2018-08-08T08:32:16.187Z,48.08
2018-08-08T08:33:16.165Z,48.34
2018-08-08T08:34:16.180Z,48.29
2018-08-08T08:35:16.189Z,48.31
2018-08-08T08:36:16.185Z,48.03
2018-08-08T08:37:16.196Z,48.22
2018-08-08T08:38:16.195Z,48.33
2018-08-08T08:39:16.232Z,48.17
2018-08-08T08:40:16.432Z,48.18
2018-08-08T08:41:16.214Z,48.26
2018-08-08T08:42:16.256Z,48.19
2018-08-08T08:43:16.186Z,48.09
2018-08-08T08:44:16.347Z,48.21
2018-08-08T08:45:16.241Z,48.36
2018-08-08T08:46:16.204Z,47.67
2018-08-08T08:47:16.239Z,47.67
2018-08-08T08:48:16.177Z,47.33
2018-08-08T08:49:16.193Z,47.19
2018-08-08T08:50:16.577Z,46.79
2018-08-08T08:51:16.212Z,46.6
2018-08-08T08:52:16.351Z,46.52
2018-08-08T08:53:16.216Z,46.46
2018-08-08T08:54:16.180Z,46.7
2018-08-08T08:55:16.361Z,46.59
2018-08-08T08:56:16.373Z,46.01
2018-08-08T08:57:16.318Z,46
2018-08-08T08:58:16.317Z,45.85
2018-08-08T08:59:16.217Z,45.85
2018-08-08T09:00:16.387Z,45.86
2018-08-08T09:01:16.971Z,45.96
2018-08-08T09:02:16.204Z,46.03
2018-08-08T09:03:16.257Z,46
2018-08-08T09:04:16.323Z,45.76
2018-08-08T09:05:16.579Z,44.74
2018-08-08T09:06:16.212Z,45.4
2018-08-08T09:07:16.496Z,44.78
2018-08-08T09:08:16.396Z,44.76
2018-08-08T09:09:16.253Z,44.97
2018-08-08T09:10:16.613Z,45.25
2018-08-08T09:11:16.352Z,45.28
2018-08-08T09:12:16.709Z,44.99
2018-08-08T09:13:16.272Z,45.13
2018-08-08T09:14:16.222Z,45
2018-08-08T09:15:16.346Z,44.57
2018-08-08T09:16:16.363Z,44.71
2018-08-08T09:17:16.259Z,44.3
2018-08-08T09:18:16.438Z,44.02
2018-08-08T09:19:16.361Z,44.04
2018-08-08T09:20:16.332Z,43.63
2018-08-08T09:21:16.237Z,44.17
2018-08-08T09:22:16.263Z,44.05
2018-08-08T09:23:16.354Z,43.76
2018-08-08T09:24:16.541Z,43.92
2018-08-08T09:25:16.414Z,44.2
2018-08-08T09:26:16.297Z,43.34
2018-08-08T09:27:16.253Z,43.39
2018-08-08T09:28:16.382Z,43.97
2018-08-08T09:29:16.256Z,43.34
2018-08-08T09:30:16.719Z,43.68
2018-08-08T09:31:16.337Z,43.59
2018-08-08T09:32:16.324Z,43.66
2018-08-08T09:33:16.311Z,43.59
2018-08-08T09:34:16.277Z,43.64
2018-08-08T09:35:16.295Z,43.42
2018-08-08T09:36:16.455Z,43.53
2018-08-08T09:37:16.360Z,42.9
2018-08-08T09:38:16.565Z,43.02
2018-08-08T09:39:16.280Z,42.58
2018-08-08T09:40:16.796Z,42.9
2018-08-08T09:41:16.347Z,42.56
2018-08-08T09:42:16.356Z,42.93
2018-08-08T09:43:16.444Z,43.32
2018-08-08T09:44:16.623Z,42.76
2018-08-08T09:45:16.460Z,43.01
2018-08-08T09:46:16.266Z,43.12
2018-08-08T09:47:16.270Z,42.97
2018-08-08T09:48:16.291Z,43.14
2018-08-08T09:49:16.280Z,42.87
2018-08-08T09:50:16.271Z,42.86
2018-08-08T09:51:16.262Z,42.3
2018-08-08T09:52:16.261Z,43.02
2018-08-08T09:53:16.279Z,43.16
2018-08-08T09:54:16.276Z,42.88
2018-08-08T09:55:16.314Z,42.64
2018-08-08T09:56:16.488Z,42.73
2018-08-08T09:57:16.273Z,42.22
2018-08-08T09:58:16.295Z,41.98
2018-08-08T09:59:16.257Z,42.22
2018-08-08T10:00:16.496Z,42.02
2018-08-08T10:01:16.303Z,41.84
2018-08-08T10:02:16.362Z,41.57
2018-08-08T10:03:16.297Z,41.49
2018-08-08T10:04:16.299Z,41.31
2018-08-08T10:05:16.497Z,41.37
2018-08-08T10:06:16.548Z,41.44
2018-08-08T10:07:16.465Z,41.56
2018-08-08T10:08:16.307Z,41.32
2018-08-08T10:09:16.377Z,41.48
2018-08-08T10:10:16.368Z,41.34
2018-08-08T10:11:16.289Z,41.16
2018-08-08T10:12:17.187Z,40.49
2018-08-08T10:13:16.375Z,40.44
2018-08-08T10:14:16.360Z,40.42
2018-08-08T10:15:16.371Z,40.72
2018-08-08T10:16:16.325Z,40.24
2018-08-08T10:17:16.410Z,40.39
2018-08-08T10:18:16.297Z,39.83
2018-08-08T10:19:16.715Z,39.64
2018-08-08T10:20:16.340Z,39.78
2018-08-08T10:21:16.319Z,39.64
2018-08-08T10:22:16.324Z,39.35
2018-08-08T10:23:16.418Z,39.24
2018-08-08T10:24:16.321Z,39.29
2018-08-08T10:25:16.480Z,39.43
2018-08-08T10:26:16.338Z,39.78
2018-08-08T10:27:16.299Z,40.65
2018-08-08T10:28:16.336Z,40.54
2018-08-08T10:29:16.330Z,40.61
2018-08-08T10:30:16.629Z,40.36
2018-08-08T10:31:16.426Z,40.22
2018-08-08T10:32:16.401Z,40.21
2018-08-08T10:33:16.360Z,39.71
2018-08-08T10:34:16.348Z,39.16
2018-08-08T10:35:16.346Z,39.09
2018-08-08T10:36:16.412Z,38.87
2018-08-08T10:37:16.516Z,39.28
2018-08-08T10:38:16.346Z,39.24
2018-08-08T10:39:16.332Z,38.69
2018-08-08T10:40:16.383Z,38.71
2018-08-08T10:41:16.636Z,39.15
2018-08-08T10:42:16.374Z,39.55
2018-08-08T10:43:16.410Z,39.79
2018-08-08T10:44:16.360Z,40.17
2018-08-08T10:45:16.479Z,40.03
2018-08-08T10:46:16.359Z,39.69
2018-08-08T10:47:16.626Z,39.61
2018-08-08T10:48:16.342Z,39.88
2018-08-08T10:49:16.345Z,39.83
2018-08-08T10:50:16.601Z,39.87
2018-08-08T10:51:16.354Z,39.77
2018-08-08T10:52:16.440Z,39.93
2018-08-08T10:53:16.357Z,40.25
2018-08-08T10:54:16.386Z,40.22
2018-08-08T10:55:16.502Z,39.41
2018-08-08T10:56:16.740Z,39.39
2018-08-08T10:57:16.527Z,39.14
2018-08-08T10:58:16.363Z,39.77
2018-08-08T10:59:16.383Z,39.66
2018-08-08T11:00:16.404Z,39.38
2018-08-08T11:01:16.390Z,39.87
2018-08-08T11:02:16.364Z,39.77
2018-08-08T11:03:16.864Z,39.92
2018-08-08T11:04:16.379Z,40.19
2018-08-08T11:05:16.376Z,40.45
2018-08-08T11:06:16.391Z,40.18
2018-08-08T11:07:16.366Z,40.71
2018-08-08T11:08:16.352Z,40.72
2018-08-08T11:09:16.371Z,40.86
2018-08-08T11:10:16.507Z,40.82
2018-08-08T11:11:16.386Z,40.75
2018-08-08T11:12:16.382Z,40.96
2018-08-08T11:13:16.367Z,41.15
2018-08-08T11:14:16.377Z,41.19
2018-08-08T11:15:16.466Z,41.13
2018-08-08T11:16:16.372Z,41.24
2018-08-08T11:17:16.395Z,41.12
2018-08-08T11:18:16.473Z,40.99
2018-08-08T11:19:16.459Z,41.21
2018-08-08T11:20:16.551Z,41.34
2018-08-08T11:21:16.455Z,41.21
2018-08-08T11:22:16.372Z,41.55
2018-08-08T11:23:16.463Z,41.1
2018-08-08T11:24:16.405Z,40.91
2018-08-08T11:25:16.396Z,40.77
2018-08-08T11:26:16.404Z,40.56
2018-08-08T11:27:16.834Z,40.35
2018-08-08T11:28:16.401Z,40.74
2018-08-08T11:29:16.526Z,40.72
2018-08-08T11:30:16.565Z,40.46
2018-08-08T11:31:16.447Z,40.93
2018-08-08T11:32:16.514Z,40.91
2018-08-08T11:33:17.076Z,40.83
2018-08-08T11:34:16.511Z,40.03
2018-08-08T11:35:16.451Z,40.5
2018-08-08T11:36:16.569Z,40.36
2018-08-08T11:37:16.589Z,40.35
2018-08-08T11:38:16.449Z,40.19
2018-08-08T11:39:16.683Z,39.89
2018-08-08T11:40:16.551Z,39.91
2018-08-08T11:41:16.441Z,40.02
2018-08-08T11:42:16.543Z,39.68
2018-08-08T11:43:16.434Z,38.24
2018-08-08T11:44:16.435Z,39.08
2018-08-08T11:45:16.411Z,38.7
2018-08-08T11:46:16.543Z,38.41
2018-08-08T11:47:16.498Z,38.83
2018-08-08T11:48:16.427Z,39.01
2018-08-08T11:49:16.437Z,38.6
2018-08-08T11:50:16.636Z,38.8
2018-08-08T11:51:16.614Z,38.96
2018-08-08T11:52:16.551Z,38.72
2018-08-08T11:53:16.553Z,38.49
2018-08-08T11:54:16.533Z,38.51
2018-08-08T11:55:16.461Z,38.66
2018-08-08T11:56:16.474Z,38.74
2018-08-08T11:57:16.443Z,38.66
2018-08-08T11:58:16.589Z,38.74
2018-08-08T11:59:16.664Z,38.91
2018-08-08T12:00:16.466Z,38.44
2018-08-08T12:01:16.627Z,38.21
2018-08-08T12:02:16.793Z,38.19
2018-08-08T12:03:16.670Z,37.89
2018-08-08T12:04:16.528Z,37.9
2018-08-08T12:05:16.479Z,38.03
2018-08-08T12:06:16.529Z,37.95
2018-08-08T12:07:16.724Z,37.84
2018-08-08T12:08:16.510Z,38.21
2018-08-08T12:09:16.649Z,38.31
2018-08-08T12:10:16.474Z,38
2018-08-08T12:11:16.467Z,37.96
2018-08-08T12:12:17.144Z,37.67
2018-08-08T12:13:16.761Z,37.86
2018-08-08T12:14:16.844Z,37.92
2018-08-08T12:15:16.545Z,37.87
2018-08-08T12:16:16.474Z,37.79
2018-08-08T12:17:16.486Z,37.87
2018-08-08T12:18:16.495Z,38.09
2018-08-08T12:19:16.466Z,38.16
2018-08-08T12:20:16.736Z,38.07
2018-08-08T12:21:16.452Z,37.87
2018-08-08T12:22:16.475Z,37.73
2018-08-08T12:23:16.779Z,37.7
2018-08-08T12:24:16.464Z,37.79
2018-08-08T12:25:16.488Z,37.92
2018-08-08T12:26:16.499Z,37.78
2018-08-08T12:27:16.521Z,37.8
2018-08-08T12:28:16.481Z,37.82
2018-08-08T12:29:16.487Z,37.8
2018-08-08T12:30:16.491Z,37.8
2018-08-08T12:31:16.495Z,38.19
2018-08-08T12:32:16.520Z,37.9
2018-08-08T12:33:16.524Z,37.87
2018-08-08T12:34:16.761Z,37.99
2018-08-08T12:35:16.896Z,37.79
2018-08-08T12:36:16.490Z,37.51
2018-08-08T12:37:17.201Z,37.76
2018-08-08T12:38:16.485Z,37.55
2018-08-08T12:39:17.017Z,37.45
2018-08-08T12:40:17.039Z,37.56
2018-08-08T12:41:16.498Z,37.21
2018-08-08T12:42:16.657Z,37.51
2018-08-08T12:43:16.498Z,37.24
2018-08-08T12:44:16.514Z,37.48
2018-08-08T12:45:16.606Z,37.55
2018-08-08T12:46:16.812Z,37.65
2018-08-08T12:47:16.748Z,37.65
2018-08-08T12:48:16.553Z,37.71
2018-08-08T12:49:16.514Z,37.64
2018-08-08T12:50:16.868Z,37.85
2018-08-08T12:51:16.569Z,37.62
2018-08-08T12:52:16.782Z,37.69
2018-08-08T12:53:16.553Z,38.34
2018-08-08T12:54:16.636Z,38.28
2018-08-08T12:55:16.538Z,38.4
2018-08-08T12:56:16.518Z,38.73